createdAt,value
2018-05-14T00:03:14.218Z,5.20
2018-05-14T00:08:16.785Z,6.00
2018-05-14T00:13:19.353Z,5.07
2018-05-14T00:18:21.918Z,5.43
2018-05-14T00:23:24.491Z,4.97
2018-05-14T00:33:35.240Z,5.50
2018-05-14T00:38:39.614Z,5.33
2018-05-14T00:43:42.382Z,4.87
2018-05-14T00:48:46.099Z,5.30
2018-05-14T00:53:49.170Z,5.63
2018-05-14T00:58:51.840Z,5.20
2018-05-14T01:03:54.625Z,5.80
2018-05-14T01:08:58.872Z,4.37
2018-05-14T01:14:02.457Z,5.43
2018-05-14T01:19:05.420Z,4.63
2018-05-14T01:24:08.225Z,4.63
2018-05-14T01:29:10.959Z,4.97
2018-05-14T01:34:13.711Z,4.90
2018-05-14T01:39:16.838Z,4.57
2018-05-14T01:44:20.344Z,4.43
2018-05-14T01:49:23.014Z,3.40
2018-05-14T01:54:25.752Z,4.43
2018-05-14T01:59:28.478Z,3.70
2018-05-14T02:04:31.368Z,4.40
2018-05-14T02:09:34.339Z,4.00
2018-05-14T02:14:37.185Z,4.07
2018-05-14T02:19:40.142Z,4.53
2018-05-14T02:24:42.973Z,3.97
2018-05-14T02:29:47.301Z,4.07
2018-05-14T02:34:50.002Z,4.53
2018-05-14T02:39:52.868Z,4.40
2018-05-14T02:44:56.527Z,4.67
2018-05-14T02:49:59.270Z,4.27
2018-05-14T02:55:02.125Z,4.80
2018-05-14T03:00:04.687Z,3.60
2018-05-14T03:05:07.484Z,3.43
2018-05-14T03:10:10.277Z,3.50
2018-05-14T03:15:17.375Z,3.90
2018-05-14T03:20:20.450Z,3.33
2018-05-14T03:25:23.126Z,3.47
2018-05-14T03:30:26.502Z,3.30
2018-05-14T03:35:30.209Z,3.03
2018-05-14T03:40:32.884Z,4.07
2018-05-14T03:45:35.882Z,3.40
2018-05-14T03:50:38.760Z,3.83
2018-05-14T03:55:41.423Z,3.87
2018-05-14T04:00:56.196Z,3.83
2018-05-14T04:06:10.825Z,3.90
2018-05-14T04:11:13.492Z,3.70
2018-05-14T04:16:16.319Z,3.80
2018-05-14T04:21:19.778Z,4.13
2018-05-14T04:26:22.434Z,3.63
2018-05-14T04:31:26.039Z,3.53
2018-05-14T04:36:28.729Z,4.30
2018-05-14T04:41:32.276Z,3.17
2018-05-14T04:46:35.743Z,3.60
2018-05-14T04:51:40.012Z,3.53
2018-05-14T04:56:49.235Z,3.80
2018-05-14T05:01:51.825Z,3.80
2018-05-14T05:06:59.971Z,3.53
2018-05-14T05:17:12.497Z,3.30
2018-05-14T05:27:41.714Z,3.43
2018-05-14T05:32:50.640Z,3.07
2018-05-14T05:38:02.772Z,3.47
2018-05-14T05:43:12.424Z,3.53
2018-05-14T05:48:39.803Z,3.10
2018-05-14T05:53:42.542Z,2.93
2018-05-14T05:58:58.759Z,3.57
2018-05-14T06:04:08.861Z,2.90
2018-05-14T06:09:14.777Z,3.07
2018-05-14T06:14:24.031Z,3.03
2018-05-14T06:19:34.593Z,3.23
2018-05-14T06:24:42.818Z,3.77
2018-05-14T06:35:12.671Z,4.53
2018-05-14T06:40:20.457Z,2.70
2018-05-14T06:45:31.052Z,2.67
2018-05-14T06:50:34.106Z,3.43
2018-05-14T06:55:41.639Z,2.80
2018-05-14T07:06:31.401Z,3.60
2018-05-14T07:11:40.874Z,3.20
2018-05-14T07:16:43.405Z,3.03
2018-05-14T07:21:45.928Z,3.60
2018-05-14T07:26:57.108Z,3.53
2018-05-14T07:32:03.893Z,3.10
2018-05-14T07:37:19.311Z,3.67
2018-05-14T07:42:21.881Z,4.13
2018-05-14T07:47:30.055Z,3.30
2018-05-14T07:52:32.348Z,3.97
2018-05-14T07:57:34.887Z,4.43
2018-05-14T08:02:40.727Z,4.03
2018-05-14T08:07:44.179Z,5.90
2018-05-14T08:12:49.637Z,4.60
2018-05-14T08:17:54.354Z,5.00
2018-05-14T08:23:03.900Z,5.70
2018-05-14T08:28:10.350Z,5.80
2018-05-14T08:33:16.747Z,5.87
2018-05-14T08:38:21.464Z,5.10
2018-05-14T08:43:26.584Z,5.00
2018-05-14T08:48:31.392Z,5.20
2018-05-14T08:53:36.633Z,5.03
2018-05-14T08:58:49.314Z,4.20
2018-05-14T09:03:55.969Z,4.63
2018-05-14T09:14:14.306Z,4.73
2018-05-14T09:19:19.348Z,5.07
2018-05-14T09:34:57.931Z,3.90
2018-05-14T09:40:02.826Z,3.37
2018-05-14T09:45:08.497Z,4.53
2018-05-14T09:50:13.772Z,4.80
2018-05-14T09:55:19.556Z,3.73
2018-05-14T10:00:25.523Z,3.57
2018-05-14T10:05:31.675Z,4.40
2018-05-14T10:10:36.091Z,3.30
2018-05-14T10:20:54.974Z,4.20
2018-05-14T10:26:00.309Z,5.20
2018-05-14T10:31:05.108Z,4.00
2018-05-14T10:36:08.734Z,4.13
2018-05-14T10:41:17.169Z,4.57
2018-05-14T10:46:25.508Z,4.30
2018-05-14T10:51:31.513Z,3.60
2018-05-14T11:01:49.660Z,4.13
2018-05-14T11:06:59.938Z,3.37
2018-05-14T11:12:03.708Z,2.90
2018-05-14T11:17:17.714Z,4.40
2018-05-14T11:22:22.494Z,4.30
2018-05-14T11:27:30.277Z,3.20
2018-05-14T11:32:38.747Z,4.20
2018-05-14T11:37:45.533Z,4.13
2018-05-14T11:42:48.304Z,4.70
2018-05-14T11:47:51.309Z,3.50
2018-05-14T11:52:55.784Z,5.27
2018-05-14T11:58:01.264Z,4.60
2018-05-14T12:03:10.598Z,4.60
2018-05-14T12:08:22.418Z,3.90
2018-05-14T12:13:32.724Z,4.23
2018-05-14T12:18:39.008Z,4.27
2018-05-14T12:23:45.428Z,4.07
2018-05-14T12:28:51.184Z,4.00
2018-05-14T12:33:57.070Z,4.03
2018-05-14T12:39:05.317Z,4.00
2018-05-14T12:44:12.682Z,4.17
2018-05-14T12:49:18.763Z,5.07
2018-05-14T12:54:25.483Z,4.03
2018-05-14T12:59:32.668Z,4.27
2018-05-14T13:04:38.124Z,5.10
2018-05-14T13:09:41.196Z,4.30
2018-05-14T13:14:46.302Z,4.77
2018-05-14T13:19:51.879Z,4.73
2018-05-14T13:24:57.925Z,4.27
2018-05-14T13:30:02.587Z,5.10
2018-05-14T13:35:05.302Z,4.73
2018-05-14T13:40:08.198Z,3.43
2018-05-14T13:45:17.172Z,3.23
2018-05-14T13:50:20.447Z,2.90
2018-05-14T13:55:25.990Z,3.83
2018-05-14T14:00:46.579Z,3.77
2018-05-14T14:05:50.706Z,3.97
2018-05-14T14:11:03.096Z,3.90
2018-05-14T14:16:08.982Z,3.77
2018-05-14T14:21:13.474Z,4.10
2018-05-14T14:26:18.921Z,4.00
2018-05-14T14:31:27.438Z,4.10
2018-05-14T14:36:31.321Z,3.17
2018-05-14T14:41:34.282Z,3.57
2018-05-14T14:46:39.510Z,4.30
2018-05-14T14:51:42.477Z,3.80
2018-05-14T14:56:46.408Z,4.27
2018-05-14T15:01:51.147Z,3.37
2018-05-14T15:06:55.931Z,2.30
2018-05-14T15:11:59.915Z,1.77
2018-05-14T15:17:05.873Z,2.17
2018-05-14T15:22:11.452Z,1.73
2018-05-14T15:27:19.217Z,1.70
2018-05-14T15:32:22.581Z,1.80
2018-05-14T15:37:28.776Z,2.27
2018-05-14T15:42:33.579Z,1.93
2018-05-14T15:47:38.009Z,2.00
2018-05-14T15:52:46.375Z,2.27
2018-05-14T15:57:52.533Z,2.10
2018-05-14T16:02:56.237Z,1.87
2018-05-14T16:08:01.472Z,2.50
2018-05-14T16:13:07.512Z,2.80
2018-05-14T16:18:11.340Z,2.80
2018-05-14T16:23:15.349Z,2.30
2018-05-14T16:28:21.881Z,2.80
2018-05-14T16:33:25.750Z,2.67
2018-05-14T16:38:28.589Z,2.40
2018-05-14T16:43:31.169Z,2.43
2018-05-14T16:48:33.757Z,2.00
2018-05-14T16:53:36.354Z,2.40
2018-05-14T16:58:39.729Z,2.70
2018-05-14T17:03:42.591Z,2.47
2018-05-14T17:08:45.171Z,2.60
2018-05-14T17:13:48.815Z,2.00
2018-05-14T17:18:51.592Z,2.90
2018-05-14T17:23:54.278Z,2.50
2018-05-14T17:28:56.875Z,2.60
2018-05-14T17:33:59.443Z,2.30
2018-05-14T17:39:02.049Z,2.77
2018-05-14T17:44:04.739Z,3.00
2018-05-14T17:49:07.331Z,2.97
2018-05-14T17:54:13.515Z,2.20
2018-05-14T17:59:16.245Z,1.70
2018-05-14T18:04:18.863Z,1.83
2018-05-14T18:09:21.462Z,1.57
2018-05-14T18:14:24.074Z,2.13
2018-05-14T18:19:26.711Z,1.57
2018-05-14T18:24:30.481Z,2.10
2018-05-14T18:29:33.285Z,1.83
2018-05-14T18:34:39.934Z,1.40
2018-05-14T18:39:42.927Z,1.43
2018-05-14T18:44:45.482Z,1.60
2018-05-14T18:49:48.037Z,1.93
2018-05-14T18:54:50.735Z,1.80
2018-05-14T18:59:53.308Z,2.40
2018-05-14T19:04:55.898Z,2.47
2018-05-14T19:09:58.488Z,2.20
2018-05-14T19:15:06.744Z,3.00
2018-05-14T19:20:09.404Z,2.57
2018-05-14T19:25:11.948Z,2.77
2018-05-14T19:30:15.003Z,2.57
2018-05-14T19:35:29.361Z,2.23
2018-05-14T19:40:37.677Z,2.27
2018-05-14T19:45:41.370Z,2.00
2018-05-14T19:50:43.990Z,2.30
2018-05-14T19:55:47.412Z,2.33
2018-05-14T20:00:50.086Z,1.80
2018-05-14T20:05:52.742Z,2.20
2018-05-14T20:10:55.503Z,1.70
2018-05-14T20:15:58.100Z,2.67
2018-05-14T20:21:01.765Z,2.20
2018-05-14T20:26:04.972Z,1.77
2018-05-14T20:31:07.614Z,2.40
2018-05-14T20:36:10.272Z,2.67
2018-05-14T20:41:13.653Z,2.43
2018-05-14T20:46:16.404Z,2.60
2018-05-14T20:51:19.062Z,2.40
2018-05-14T20:56:21.731Z,2.40
2018-05-14T21:01:24.310Z,3.10
2018-05-14T21:06:26.935Z,2.60
2018-05-14T21:11:29.681Z,2.40
2018-05-14T21:16:32.492Z,2.30
2018-05-14T21:21:35.318Z,2.20
2018-05-14T21:26:38.020Z,2.70
2018-05-14T21:31:41.486Z,2.83
2018-05-14T21:36:44.246Z,3.00
2018-05-14T21:41:47.469Z,2.70
2018-05-14T21:46:50.123Z,2.03
2018-05-14T21:51:53.030Z,2.20
2018-05-14T21:56:56.054Z,2.30
2018-05-14T22:01:59.086Z,1.80
2018-05-14T22:07:01.761Z,2.50
2018-05-14T22:12:04.517Z,2.13
2018-05-14T22:17:07.480Z,2.00
2018-05-14T22:22:10.977Z,2.30
2018-05-14T22:27:13.593Z,1.93
2018-05-14T22:32:16.209Z,2.23
2018-05-14T22:37:19.048Z,2.10
2018-05-14T22:42:21.605Z,2.20
2018-05-14T22:47:24.217Z,2.03
2018-05-14T22:52:27.125Z,2.00
2018-05-14T22:57:29.812Z,2.13
2018-05-14T23:02:33.183Z,2.40
2018-05-14T23:07:36.539Z,2.10
2018-05-14T23:12:40.468Z,2.33
2018-05-14T23:17:43.965Z,2.40
2018-05-14T23:22:46.835Z,2.30
2018-05-14T23:27:49.425Z,2.13
2018-05-14T23:32:52.224Z,2.30
2018-05-14T23:37:55.317Z,2.50
2018-05-14T23:42:58.253Z,2.80
2018-05-14T23:48:00.887Z,2.50
2018-05-14T23:53:03.608Z,2.57
2018-05-14T23:58:06.866Z,1.90
